Time;durP1;ratioP1;P1;durP2;ratioP2;P2;SDS_P1;SDS_P2;PMS_P1;PMS_P2;Temp;Humidity;BMP_temperature;BMP_pressure;BME280_temperature;BME280_humidity;BME280_pressure;Samples;Min_cycle;Max_cycle;Signal;HPM_P1;HPM_P2
2021/12/23 00:00:35;;;;;;;44.80;21.90;;;-2.90;99.90;;;;;;5018892;28;20403;-54
2021/12/23 00:03:02;;;;;;;45.45;21.45;;;-1.70;99.90;;;;;;5018456;28;20848;-54
2021/12/23 00:05:27;;;;;;;44.78;20.55;;;-1.40;99.90;;;;;;5022041;28;20383;-54
2021/12/23 00:07:53;;;;;;;48.45;22.50;;;-2.90;99.90;;;;;;5019694;28;20728;-54
2021/12/23 00:10:19;;;;;;;55.03;24.60;;;-2.90;99.90;;;;;;5019223;28;20383;-54
2021/12/23 00:12:45;;;;;;;53.50;25.67;;;-2.90;99.90;;;;;;5018822;28;20387;-54
2021/12/23 00:15:23;;;;;;;52.17;23.42;;;-2.90;99.90;;;;;;5018854;28;20390;-54
2021/12/23 00:25:34;;;;;;;47.87;22.47;;;-3.00;99.90;;;;;;5016281;28;20864;-54
2021/12/23 00:28:00;;;;;;;48.83;22.97;;;-3.00;99.90;;;;;;5006377;28;20395;-54
2021/12/23 00:30:25;;;;;;;52.97;24.50;;;-3.00;99.90;;;;;;5007717;28;20543;-54
2021/12/23 00:32:51;;;;;;;49.92;23.70;;;-3.00;99.90;;;;;;5009948;28;20412;-54
2021/12/23 00:35:17;;;;;;;49.97;23.38;;;-2.90;99.90;;;;;;5012403;28;20408;-53
2021/12/23 00:37:46;;;;;;;49.55;23.08;;;-2.90;99.90;;;;;;5015666;28;20419;-54
2021/12/23 00:40:12;;;;;;;47.50;22.65;;;-2.90;99.90;;;;;;5009536;28;20384;-53
2021/12/23 00:42:39;;;;;;;56.58;26.17;;;-3.00;99.90;;;;;;5010144;28;20394;-54
2021/12/23 00:45:05;;;;;;;49.13;22.30;;;-3.10;99.90;;;;;;5009307;28;20457;-54
2021/12/23 00:47:31;;;;;;;48.53;22.30;;;-3.20;99.90;;;;;;5010306;28;20377;-54
2021/12/23 00:49:57;;;;;;;50.20;22.88;;;-3.30;99.90;;;;;;5008034;28;20475;-54
2021/12/23 00:52:31;;;;;;;52.47;23.38;;;-3.20;99.90;;;;;;4994287;28;20907;-54
2021/12/23 00:54:57;;;;;;;49.03;22.43;;;-3.10;99.90;;;;;;5010049;28;20444;-54
2021/12/23 00:57:27;;;;;;;48.00;23.03;;;-1.40;99.90;;;;;;5009106;28;20384;-54
2021/12/23 00:59:55;;;;;;;49.90;22.27;;;-3.10;99.90;;;;;;5010203;28;20399;-54
2021/12/23 01:02:24;;;;;;;49.45;23.33;;;-3.00;99.90;;;;;;5009344;28;21014;-54
2021/12/23 01:04:50;;;;;;;46.20;22.17;;;-3.00;99.90;;;;;;5010005;28;20384;-54
2021/12/23 01:07:16;;;;;;;53.28;23.33;;;-3.00;99.90;;;;;;5009316;28;20443;-54
2021/12/23 01:09:42;;;;;;;56.22;24.75;;;-3.00;99.90;;;;;;5009904;28;20393;-54
2021/12/23 01:12:11;;;;;;;46.47;22.52;;;-2.90;99.90;;;;;;5009098;28;20416;-53
2021/12/23 01:14:43;;;;;;;50.33;23.55;;;-2.80;99.90;;;;;;5009875;28;20392;-53
2021/12/23 01:17:30;;;;;;;49.40;22.60;;;-2.80;99.90;;;;;;5009066;28;20396;-53
2021/12/23 01:19:57;;;;;;;49.17;23.33;;;-2.90;99.90;;;;;;5009696;28;20397;-54
2021/12/23 01:22:23;;;;;;;49.50;23.27;;;-2.90;99.90;;;;;;5007548;28;20798;-54
2021/12/23 01:24:50;;;;;;;51.95;23.05;;;-2.90;99.90;;;;;;5008526;28;20389;-53
2021/12/23 01:27:16;;;;;;;45.78;22.67;;;-2.90;99.90;;;;;;5008949;28;20446;-54
2021/12/23 01:29:42;;;;;;;51.40;21.38;;;-3.00;99.90;;;;;;5008865;28;20427;-53
2021/12/23 01:32:08;;;;;;;53.97;23.40;;;-3.00;99.90;;;;;;5008932;28;20432;-53
2021/12/23 01:34:35;;;;;;;53.70;22.40;;;-3.00;99.90;;;;;;5010135;28;20388;-53
2021/12/23 01:37:05;;;;;;;56.33;23.55;;;-3.00;99.90;;;;;;5009509;28;20476;-54
2021/12/23 01:39:31;;;;;;;47.92;22.55;;;-3.10;99.90;;;;;;5009577;28;20385;-53
2021/12/23 01:41:58;;;;;;;51.63;22.63;;;-2.00;99.90;;;;;;5009561;28;20789;-53
2021/12/23 01:44:23;;;;;;;47.72;23.00;;;-2.90;99.90;;;;;;5008757;28;20389;-54
2021/12/23 01:46:49;;;;;;;46.15;22.70;;;-2.80;99.90;;;;;;5009471;28;20447;-54
2021/12/23 01:49:15;;;;;;;48.25;22.40;;;-2.80;99.90;;;;;;5008610;28;20468;-53
2021/12/23 01:51:41;;;;;;;47.60;22.50;;;-2.70;99.90;;;;;;5009536;28;20474;-53
2021/12/23 01:54:07;;;;;;;52.53;22.95;;;-2.60;99.90;;;;;;5008565;28;20789;-53
2021/12/23 01:56:33;;;;;;;50.75;23.30;;;-2.60;99.90;;;;;;5009558;28;20377;-53
2021/12/23 01:58:59;;;;;;;50.58;23.10;;;-2.50;99.90;;;;;;5009641;28;20405;-53
2021/12/23 02:01:25;;;;;;;46.37;22.50;;;-2.50;99.90;;;;;;5008463;28;20809;-53
2021/12/23 02:03:51;;;;;;;50.35;23.38;;;-2.60;99.90;;;;;;5013161;28;20895;-54
2021/12/23 02:06:17;;;;;;;53.30;23.90;;;-2.50;99.90;;;;;;5011042;28;20401;-53
2021/12/23 02:08:44;;;;;;;54.57;24.20;;;-2.40;99.90;;;;;;5013243;28;20385;-53
2021/12/23 02:11:11;;;;;;;52.77;24.23;;;-2.40;99.90;;;;;;5012515;28;20481;-53
2021/12/23 02:13:37;;;;;;;51.33;24.63;;;-2.40;99.90;;;;;;5012794;28;20451;-53
2021/12/23 02:16:04;;;;;;;51.22;23.13;;;-2.40;99.90;;;;;;5012559;28;20447;-53
2021/12/23 02:18:30;;;;;;;48.13;22.58;;;-2.40;99.90;;;;;;5012671;28;20388;-53
2021/12/23 02:20:57;;;;;;;49.10;23.25;;;-2.40;99.90;;;;;;5012890;28;20389;-53
2021/12/23 02:23:23;;;;;;;50.60;24.35;;;-2.30;99.90;;;;;;5011931;28;20393;-53
2021/12/23 02:25:49;;;;;;;52.85;23.20;;;-0.80;99.90;;;;;;5012931;28;20389;-53
2021/12/23 02:28:19;;;;;;;50.75;22.83;;;-2.50;99.90;;;;;;5011360;28;20496;-53
2021/12/23 02:30:51;;;;;;;47.53;22.50;;;-2.50;99.90;;;;;;5012420;28;20998;-53
2021/12/23 02:33:18;;;;;;;49.75;22.85;;;-2.50;99.90;;;;;;5012291;28;20433;-53
2021/12/23 02:35:44;;;;;;;49.83;21.42;;;-2.50;99.90;;;;;;5012769;28;20472;-54
2021/12/23 02:38:10;;;;;;;52.15;23.95;;;-2.60;99.90;;;;;;5011929;28;20424;-53
2021/12/23 02:40:41;;;;;;;52.40;23.30;;;-2.50;99.90;;;;;;5012757;28;20862;-53
2021/12/23 02:43:14;;;;;;;50.42;24.17;;;-2.40;99.90;;;;;;5011611;28;20531;-53
2021/12/23 02:45:42;;;;;;;49.92;23.90;;;-2.30;99.90;;;;;;5012275;28;20400;-53
2021/12/23 02:48:15;;;;;;;46.63;21.60;;;-2.30;99.90;;;;;;5011352;28;20801;-53
2021/12/23 02:50:45;;;;;;;47.75;22.25;;;-2.30;99.90;;;;;;5011202;28;20436;-53
2021/12/23 02:53:11;;;;;;;45.65;22.00;;;-2.20;99.90;;;;;;5006192;28;20416;-53
2021/12/23 02:55:37;;;;;;;51.05;22.48;;;-2.30;99.90;;;;;;5009294;28;20885;-53
2021/12/23 02:58:04;;;;;;;52.70;24.00;;;-2.30;99.90;;;;;;5011797;28;20769;-53
2021/12/23 03:00:30;;;;;;;48.90;22.30;;;-2.20;99.90;;;;;;5012257;28;20608;-53
2021/12/23 03:02:56;;;;;;;48.95;21.42;;;-2.40;99.90;;;;;;5012005;28;20900;-53
2021/12/23 03:05:22;;;;;;;50.40;22.30;;;-2.30;99.90;;;;;;5010408;28;20420;-53
2021/12/23 03:07:48;;;;;;;48.30;22.40;;;-2.30;99.90;;;;;;5012191;28;20397;-53
2021/12/23 03:10:15;;;;;;;45.30;21.10;;;-2.30;99.90;;;;;;5011134;28;20446;-53
2021/12/23 03:12:41;;;;;;;44.45;21.15;;;-2.20;99.90;;;;;;5012015;28;20821;-53
2021/12/23 03:15:07;;;;;;;49.05;22.40;;;-2.30;99.90;;;;;;5010254;28;20439;-52
2021/12/23 03:17:33;;;;;;;47.72;22.92;;;-2.30;99.90;;;;;;5012049;28;20460;-56
2021/12/23 03:19:59;;;;;;;46.25;21.40;;;-2.50;99.90;;;;;;5012130;28;20814;-55
2021/12/23 03:22:25;;;;;;;41.63;21.10;;;-2.50;99.90;;;;;;5010750;28;20396;-54
2021/12/23 03:24:51;;;;;;;44.22;20.80;;;-2.40;99.90;;;;;;5011794;28;20376;-54
2021/12/23 03:27:16;;;;;;;43.92;20.15;;;-2.40;99.90;;;;;;5011016;28;20385;-54
2021/12/23 03:29:42;;;;;;;49.53;21.85;;;-2.50;99.90;;;;;;5011646;28;20837;-54
2021/12/23 03:32:08;;;;;;;45.10;20.47;;;-2.50;99.90;;;;;;5010665;28;20964;-54
2021/12/23 03:34:34;;;;;;;42.90;20.80;;;-2.50;99.90;;;;;;5010421;28;20893;-55
2021/12/23 03:36:59;;;;;;;42.58;20.40;;;-2.50;99.90;;;;;;5011428;28;20472;-54
2021/12/23 03:39:26;;;;;;;43.70;21.23;;;-2.50;99.90;;;;;;5010655;28;20380;-55
2021/12/23 03:41:52;;;;;;;47.15;21.67;;;-2.50;99.90;;;;;;5011306;28;20455;-54
2021/12/23 03:44:18;;;;;;;46.60;22.50;;;-2.60;99.90;;;;;;5010980;28;20380;-54
2021/12/23 03:46:47;;;;;;;48.10;20.75;;;-2.50;99.90;;;;;;5011250;28;20385;-55
2021/12/23 03:49:13;;;;;;;44.35;21.42;;;-2.50;99.90;;;;;;5010577;28;20397;-55
2021/12/23 03:51:38;;;;;;;43.70;20.95;;;-2.50;99.90;;;;;;5011097;28;20499;-55
2021/12/23 03:54:05;;;;;;;43.37;19.70;;;-2.40;99.90;;;;;;5010844;28;20443;-55
2021/12/23 03:56:31;;;;;;;44.75;19.88;;;-2.40;99.90;;;;;;5011263;28;20430;-55
2021/12/23 03:58:57;;;;;;;42.47;19.50;;;-2.40;99.90;;;;;;5011349;28;20472;-55
2021/12/23 04:01:25;;;;;;;46.20;21.45;;;-2.40;99.90;;;;;;5009978;28;20870;-53
2021/12/23 04:03:52;;;;;;;44.45;20.85;;;-2.40;99.90;;;;;;5010933;28;20385;-54
2021/12/23 04:06:19;;;;;;;45.80;20.85;;;-2.40;99.90;;;;;;5010168;28;20379;-54
2021/12/23 04:08:44;;;;;;;46.00;21.20;;;-2.30;99.90;;;;;;5011042;28;20439;-54
2021/12/23 04:11:10;;;;;;;43.78;20.90;;;-2.40;99.90;;;;;;5009928;28;20416;-54
2021/12/23 04:13:36;;;;;;;46.35;20.90;;;-2.40;99.90;;;;;;5010375;28;20704;-54
2021/12/23 04:16:01;;;;;;;43.30;20.50;;;-2.20;99.90;;;;;;5010664;28;20377;-54
2021/12/23 04:18:27;;;;;;;44.77;20.33;;;-2.30;99.90;;;;;;5010383;28;20380;-54
2021/12/23 04:20:53;;;;;;;40.57;19.80;;;-2.20;99.90;;;;;;5009444;28;20720;-54
2021/12/23 04:23:23;;;;;;;38.65;19.25;;;-2.20;99.90;;;;;;5010134;28;20507;-54
2021/12/23 04:25:49;;;;;;;42.38;18.58;;;-2.20;99.90;;;;;;5010711;28;20397;-54
2021/12/23 04:28:15;;;;;;;44.85;20.42;;;-2.10;99.90;;;;;;5009375;28;20409;-53
2021/12/23 04:30:41;;;;;;;39.42;18.98;;;-2.10;99.90;;;;;;5009987;28;20425;-54
2021/12/23 04:33:06;;;;;;;47.20;20.30;;;-0.20;99.90;;;;;;5009875;28;20381;-54
2021/12/23 04:35:32;;;;;;;40.90;19.30;;;-2.00;99.90;;;;;;5010212;28;20810;-54
2021/12/23 04:37:58;;;;;;;40.83;18.52;;;-2.00;99.90;;;;;;5010518;28;20796;-54
2021/12/23 04:40:24;;;;;;;44.08;20.02;;;-2.00;99.90;;;;;;5009829;28;20381;-54
2021/12/23 04:42:50;;;;;;;40.28;18.67;;;-2.00;99.90;;;;;;5010374;28;20368;-54
2021/12/23 04:45:16;;;;;;;38.75;18.40;;;-1.30;99.90;;;;;;5009707;28;20400;-54
2021/12/23 04:47:42;;;;;;;42.07;19.27;;;-2.00;99.90;;;;;;5009967;28;20911;-54
2021/12/23 04:50:11;;;;;;;38.57;18.63;;;-1.90;99.90;;;;;;5009810;28;20395;-54
2021/12/23 04:52:37;;;;;;;39.67;18.85;;;-1.80;99.90;;;;;;5009873;28;20427;-54
2021/12/23 04:55:03;;;;;;;37.60;18.17;;;-1.70;99.90;;;;;;5010261;28;20380;-54
2021/12/23 04:57:29;;;;;;;39.80;18.77;;;-1.80;99.90;;;;;;5009415;28;20742;-54
2021/12/23 04:59:55;;;;;;;39.97;19.10;;;-1.80;99.90;;;;;;5009904;28;20904;-54
2021/12/23 05:02:21;;;;;;;40.70;20.25;;;-1.80;99.90;;;;;;5002948;28;20404;-54
2021/12/23 05:04:50;;;;;;;37.80;18.70;;;-1.80;99.90;;;;;;5009918;28;20396;-54
2021/12/23 05:07:19;;;;;;;40.30;18.88;;;-1.70;99.90;;;;;;5009295;28;20388;-54
2021/12/23 05:09:45;;;;;;;41.33;18.10;;;-1.70;99.90;;;;;;5010030;28;20380;-52
2021/12/23 05:12:12;;;;;;;41.88;20.02;;;-1.60;99.90;;;;;;5002629;28;20417;-54
2021/12/23 05:14:37;;;;;;;38.50;18.05;;;-1.50;99.90;;;;;;5009752;28;20380;-54
2021/12/23 05:17:03;;;;;;;41.20;18.63;;;-1.60;99.90;;;;;;5009440;28;20401;-54
2021/12/23 05:19:29;;;;;;;36.97;18.73;;;-1.60;99.90;;;;;;5008722;28;21266;-54
2021/12/23 05:21:55;;;;;;;36.40;18.40;;;-1.60;99.90;;;;;;5010013;28;20412;-54
2021/12/23 05:24:20;;;;;;;41.10;19.55;;;-1.50;99.90;;;;;;5009009;28;20411;-54
2021/12/23 05:26:46;;;;;;;45.47;21.23;;;-1.60;99.90;;;;;;5009632;28;20391;-54
2021/12/23 05:29:14;;;;;;;41.07;19.30;;;-1.40;99.90;;;;;;5008591;28;20416;-54
2021/12/23 05:31:39;;;;;;;41.97;19.60;;;-1.70;99.90;;;;;;5009492;28;20503;-54
2021/12/23 05:34:05;;;;;;;42.60;20.90;;;-1.70;99.90;;;;;;5009580;28;20476;-54
2021/12/23 05:36:31;;;;;;;41.72;18.60;;;-1.70;99.90;;;;;;5009763;28;20418;-54
2021/12/23 05:38:56;;;;;;;37.93;17.50;;;-1.80;99.90;;;;;;5016514;28;20471;-54
2021/12/23 05:41:26;;;;;;;35.65;16.70;;;-1.80;99.90;;;;;;5015310;28;20395;-54
2021/12/23 05:43:54;;;;;;;41.75;18.13;;;-1.90;99.90;;;;;;5015780;28;20979;-54
2021/12/23 05:46:19;;;;;;;40.53;19.10;;;-1.90;99.90;;;;;;5014026;28;20422;-54
2021/12/23 05:48:45;;;;;;;41.53;18.50;;;-2.00;99.90;;;;;;5016272;28;20392;-54
2021/12/23 05:51:11;;;;;;;41.97;18.60;;;-2.00;99.90;;;;;;5010033;28;20416;-54
2021/12/23 05:53:37;;;;;;;40.07;19.37;;;-2.00;99.90;;;;;;5011222;28;20426;-54
2021/12/23 05:56:03;;;;;;;35.53;18.23;;;-2.00;99.90;;;;;;5015922;28;20446;-54
2021/12/23 05:58:29;;;;;;;41.97;18.80;;;-2.10;99.90;;;;;;5014940;28;20376;-53
2021/12/23 06:00:54;;;;;;;40.83;18.70;;;-2.20;99.90;;;;;;5013004;28;20404;-54
2021/12/23 06:03:20;;;;;;;40.53;17.73;;;-2.30;99.90;;;;;;5008880;28;20381;-55
2021/12/23 06:05:45;;;;;;;37.22;17.63;;;-2.30;99.90;;;;;;5015614;28;20389;-54
2021/12/23 06:08:11;;;;;;;43.38;19.70;;;-2.40;99.90;;;;;;5008991;28;20412;-53
2021/12/23 06:10:37;;;;;;;41.60;19.13;;;-2.30;99.90;;;;;;5015666;28;20511;-54
2021/12/23 06:13:02;;;;;;;39.97;19.00;;;-2.30;99.90;;;;;;5015639;28;20392;-53
2021/12/23 06:15:28;;;;;;;39.22;18.45;;;-2.30;99.90;;;;;;5012676;28;20403;-54
2021/12/23 06:17:54;;;;;;;40.22;18.98;;;-2.40;99.90;;;;;;5015795;28;20389;-54
2021/12/23 06:20:19;;;;;;;39.45;18.63;;;-2.40;99.90;;;;;;5015241;28;20511;-54
2021/12/23 06:22:45;;;;;;;40.07;19.37;;;-2.40;99.90;;;;;;5015677;28;20424;-54
2021/12/23 06:25:12;;;;;;;43.30;20.57;;;-2.50;99.90;;;;;;5015085;28;20385;-54
2021/12/23 06:27:40;;;;;;;38.13;18.23;;;-2.50;99.90;;;;;;5015717;28;20396;-54
2021/12/23 06:30:18;;;;;;;42.30;19.38;;;-2.50;99.90;;;;;;5006461;28;21251;-54
2021/12/23 06:32:51;;;;;;;40.72;19.77;;;-2.50;99.90;;;;;;5015838;28;20404;-54
2021/12/23 06:35:18;;;;;;;38.17;18.67;;;-2.50;99.90;;;;;;5014725;28;20392;-54
2021/12/23 06:37:44;;;;;;;43.55;20.33;;;-2.40;99.90;;;;;;5015778;28;20852;-54
2021/12/23 06:40:13;;;;;;;42.25;19.38;;;-2.30;99.90;;;;;;5015338;28;20419;-54
2021/12/23 06:42:39;;;;;;;43.22;18.73;;;-2.20;99.90;;;;;;5015462;28;20396;-54
2021/12/23 06:45:06;;;;;;;39.00;19.40;;;-2.10;99.90;;;;;;5015455;28;20391;-54
2021/12/23 06:47:33;;;;;;;49.75;22.30;;;-2.10;99.90;;;;;;5014503;28;20500;-54
2021/12/23 06:49:59;;;;;;;43.33;20.80;;;-2.00;99.90;;;;;;5011004;28;20389;-54
2021/12/23 06:52:25;;;;;;;43.85;19.00;;;-1.80;99.90;;;;;;5003597;28;20415;-54
2021/12/23 06:54:53;;;;;;;38.75;20.05;;;-1.80;99.90;;;;;;5012022;28;20407;-54
2021/12/23 06:57:23;;;;;;;41.50;19.15;;;-1.90;99.90;;;;;;5011348;28;20480;-54
2021/12/23 06:59:49;;;;;;;41.22;20.75;;;-2.10;99.90;;;;;;5011253;28;20511;-54
2021/12/23 07:02:15;;;;;;;41.53;19.07;;;-2.10;99.90;;;;;;5002448;28;20415;-53
2021/12/23 07:04:43;;;;;;;44.93;19.57;;;-2.20;99.90;;;;;;5011691;28;20403;-54
2021/12/23 07:07:09;;;;;;;41.05;18.52;;;-2.10;99.90;;;;;;5014817;28;20837;-54
2021/12/23 07:09:40;;;;;;;39.08;19.45;;;-2.10;99.90;;;;;;5013726;28;20468;-54
2021/12/23 07:12:08;;;;;;;37.55;18.73;;;-2.00;99.90;;;;;;5007474;28;20421;-54
2021/12/23 07:14:34;;;;;;;37.58;18.27;;;-2.10;99.90;;;;;;5011277;28;20727;-54
2021/12/23 07:17:00;;;;;;;36.83;17.20;;;-2.10;99.90;;;;;;5010757;28;20377;-54
2021/12/23 07:19:26;;;;;;;38.55;18.58;;;-2.10;99.90;;;;;;5008544;28;20944;-54
2021/12/23 07:21:51;;;;;;;40.22;19.17;;;-2.10;99.90;;;;;;5004452;28;20420;-54
2021/12/23 07:24:17;;;;;;;35.60;17.08;;;-1.00;99.90;;;;;;5004120;28;20428;-54
2021/12/23 07:26:44;;;;;;;38.85;18.33;;;-1.90;99.90;;;;;;5010063;28;20385;-54
2021/12/23 07:29:10;;;;;;;36.97;18.55;;;-1.80;99.90;;;;;;5010259;28;20503;-54
2021/12/23 07:31:35;;;;;;;41.57;20.10;;;-1.80;99.90;;;;;;5004447;28;20879;-54
2021/12/23 07:34:01;;;;;;;41.63;18.90;;;-1.80;99.90;;;;;;5006914;28;20447;-54
2021/12/23 07:36:27;;;;;;;38.63;17.58;;;-1.70;99.90;;;;;;5009515;28;20742;-54
2021/12/23 07:38:54;;;;;;;36.40;16.98;;;-1.70;99.90;;;;;;5006406;28;20389;-54
2021/12/23 07:41:20;;;;;;;38.33;18.10;;;-0.30;99.90;;;;;;5006038;28;20389;-54
2021/12/23 07:44:20;;;;;;;37.17;17.27;;;-1.60;99.90;;;;;;5006894;28;20508;-54
2021/12/23 07:46:39;;;;;;;35.30;16.97;;;-1.70;99.90;;;;;;5005758;28;20393;-53
2021/12/23 07:49:05;;;;;;;36.40;18.13;;;-1.20;99.90;;;;;;5010765;28;20392;-53
2021/12/23 07:51:31;;;;;;;34.75;16.60;;;-1.80;99.90;;;;;;5009433;28;20498;-53
2021/12/23 07:53:57;;;;;;;37.85;18.13;;;-1.70;99.90;;;;;;5006546;28;20400;-53
2021/12/23 07:56:24;;;;;;;38.60;18.08;;;-1.70;99.90;;;;;;5008620;28;20393;-54
2021/12/23 07:58:50;;;;;;;37.08;16.83;;;-1.60;99.90;;;;;;5010642;28;20417;-54
2021/12/23 08:01:16;;;;;;;39.20;19.30;;;-1.60;99.90;;;;;;5008041;28;20409;-53
2021/12/23 08:03:42;;;;;;;38.30;18.50;;;-0.70;99.90;;;;;;5010604;28;20388;-53
2021/12/23 08:06:08;;;;;;;34.33;17.30;;;-1.60;99.90;;;;;;5004696;28;20399;-53
2021/12/23 08:08:34;;;;;;;40.67;18.47;;;-1.40;99.90;;;;;;5008975;28;20471;-53
2021/12/23 08:10:59;;;;;;;36.90;17.80;;;-0.80;99.90;;;;;;5004689;28;20459;-53
2021/12/23 08:13:26;;;;;;;37.35;17.95;;;-1.20;99.90;;;;;;5012153;28;20823;-53
2021/12/23 08:15:51;;;;;;;36.95;18.23;;;-0.30;99.90;;;;;;5006505;28;20515;-53
2021/12/23 08:18:17;;;;;;;35.15;15.23;;;-1.10;99.90;;;;;;5008709;28;20439;-53
2021/12/23 08:20:43;;;;;;;37.05;17.80;;;-0.50;99.90;;;;;;5010123;28;20808;-53
2021/12/23 08:23:08;;;;;;;41.47;19.02;;;-0.90;99.90;;;;;;5010114;28;20392;-53
2021/12/23 08:25:34;;;;;;;38.70;18.20;;;-0.60;99.90;;;;;;5009476;28;20427;-53
2021/12/23 08:28:00;;;;;;;36.75;17.85;;;-0.60;99.90;;;;;;5010074;28;20397;-53
2021/12/23 08:30:26;;;;;;;38.10;17.93;;;-0.60;99.90;;;;;;5009913;28;20435;-53
2021/12/23 08:32:52;;;;;;;40.93;18.93;;;0.10;99.90;;;;;;5009763;28;20384;-53
2021/12/23 08:35:18;;;;;;;40.78;18.10;;;0.80;99.90;;;;;;5009532;28;20885;-55
2021/12/23 08:37:46;;;;;;;38.75;18.40;;;-0.30;99.90;;;;;;5008678;28;20912;-53
2021/12/23 08:40:22;;;;;;;33.58;18.13;;;-0.40;99.90;;;;;;5009846;28;20439;-51
2021/12/23 08:42:49;;;;;;;39.30;18.42;;;-0.30;99.90;;;;;;5010102;28;20392;-51
2021/12/23 08:45:15;;;;;;;40.78;19.10;;;-0.10;99.90;;;;;;5009489;28;20933;-51
2021/12/23 08:47:41;;;;;;;39.20;18.45;;;-0.10;99.90;;;;;;5010033;28;20488;-51
2021/12/23 08:50:09;;;;;;;38.38;18.25;;;-0.10;99.90;;;;;;5008871;28;20389;-51
2021/12/23 08:52:35;;;;;;;36.53;18.08;;;0.10;99.90;;;;;;5009077;28;20408;-51
2021/12/23 08:55:02;;;;;;;38.33;18.88;;;1.80;99.90;;;;;;5010024;28;20393;-51
2021/12/23 08:57:27;;;;;;;38.92;18.42;;;0.20;99.90;;;;;;5009189;28;20823;-52
2021/12/23 08:59:53;;;;;;;37.77;18.23;;;0.30;99.90;;;;;;5010045;28;20428;-52
2021/12/23 09:02:19;;;;;;;37.60;18.60;;;1.70;99.90;;;;;;5009141;28;20439;-51
2021/12/23 09:04:44;;;;;;;38.38;17.95;;;0.60;99.90;;;;;;5008436;28;20425;-52
2021/12/23 09:07:11;;;;;;;41.45;18.48;;;0.60;99.90;;;;;;5001908;28;20470;-51
2021/12/23 09:09:37;;;;;;;41.60;18.50;;;0.70;99.90;;;;;;5004367;28;20415;-51
2021/12/23 09:12:05;;;;;;;40.55;19.58;;;0.60;99.90;;;;;;5007714;28;20413;-51
2021/12/23 09:14:32;;;;;;;73.75;35.55;;;0.80;99.90;;;;;;5011413;28;20473;-52
2021/12/23 09:16:58;;;;;;;58.30;28.65;;;0.80;99.90;;;;;;5006632;28;20877;-52
2021/12/23 09:19:24;;;;;;;42.57;21.13;;;1.80;99.90;;;;;;5008108;28;20404;-51
2021/12/23 09:21:50;;;;;;;39.37;20.17;;;1.00;99.90;;;;;;5008958;28;21209;-51
2021/12/23 09:24:18;;;;;;;37.35;18.80;;;0.90;99.90;;;;;;5008585;28;20384;-51
2021/12/23 09:26:57;;;;;;;38.70;19.40;;;0.90;99.90;;;;;;5009402;28;20387;-51
2021/12/23 09:34:53;;;;;;;36.80;17.80;;;1.20;99.90;;;;;;5009206;28;20422;-52
2021/12/23 09:37:20;;;;;;;38.58;18.17;;;0.90;99.90;;;;;;5008663;28;20477;-52
2021/12/23 09:39:52;;;;;;;37.87;18.47;;;0.90;99.90;;;;;;5009000;28;20854;-52
2021/12/23 09:42:25;;;;;;;38.80;18.60;;;0.90;99.90;;;;;;5008232;28;20399;-51
2021/12/23 09:44:57;;;;;;;39.70;20.95;;;1.00;99.90;;;;;;5009300;28;20892;-52
2021/12/23 09:47:27;;;;;;;38.33;19.27;;;1.00;99.90;;;;;;5008503;28;20388;-52
2021/12/23 09:49:55;;;;;;;38.42;19.02;;;1.00;99.90;;;;;;5009202;28;20426;-52
2021/12/23 09:52:22;;;;;;;35.90;18.52;;;1.10;99.90;;;;;;5008461;28;20416;-52
2021/12/23 09:54:50;;;;;;;37.63;18.42;;;1.20;99.90;;;;;;5003411;28;20492;-52
2021/12/23 09:57:16;;;;;;;40.60;18.55;;;1.20;99.90;;;;;;5003608;28;20488;-51
2021/12/23 09:59:43;;;;;;;36.38;18.58;;;1.30;99.90;;;;;;5001167;28;20500;-52
2021/12/23 10:02:09;;;;;;;36.10;20.07;;;2.30;99.90;;;;;;5006722;28;20412;-52
2021/12/23 10:04:36;;;;;;;40.42;19.15;;;1.40;99.90;;;;;;5000836;28;20495;-51
2021/12/23 10:07:02;;;;;;;39.22;19.13;;;1.50;99.90;;;;;;5004999;28;20408;-52
2021/12/23 10:09:42;;;;;;;39.23;19.73;;;1.60;99.90;;;;;;5008349;28;20392;-53
2021/12/23 10:31:26;;;;;;;37.92;18.13;;;2.30;99.90;;;;;;5002483;28;20583;-54
2021/12/23 10:37:18;;;;;;;37.75;18.75;;;2.40;99.90;;;;;;4995251;28;20408;-54
2021/12/23 10:39:51;;;;;;;36.30;17.65;;;2.30;99.90;;;;;;5009113;28;20393;-54
2021/12/23 10:42:20;;;;;;;37.93;19.13;;;2.30;99.90;;;;;;5007669;28;20395;-53
2021/12/23 10:44:58;;;;;;;35.22;17.55;;;2.30;99.90;;;;;;5011442;28;20417;-54
2021/12/23 10:47:35;;;;;;;37.50;17.20;;;2.40;99.90;;;;;;5010835;28;20472;-54
2021/12/23 10:50:42;;;;;;;35.17;17.70;;;2.40;99.90;;;;;;5011730;28;20405;-53
2021/12/23 10:53:38;;;;;;;38.75;17.65;;;2.50;99.90;;;;;;4999441;28;20773;-54
2021/12/23 10:59:05;;;;;;;36.65;17.65;;;3.10;99.90;;;;;;5011327;28;20854;-53
2021/12/23 11:01:31;;;;;;;33.95;17.00;;;2.90;99.90;;;;;;5010806;28;20401;-53
2021/12/23 11:04:02;;;;;;;34.53;16.90;;;3.00;99.90;;;;;;5009377;28;20397;-53
2021/12/23 11:06:37;;;;;;;36.60;17.30;;;3.90;99.90;;;;;;5006535;28;20460;-50
2021/12/23 11:39:31;;;;;;;35.53;18.42;;;3.90;99.90;;;;;;5002667;28;20412;-51
2021/12/23 11:42:03;;;;;;;36.42;17.17;;;4.00;99.90;;;;;;5006953;28;20879;-51
2021/12/23 11:44:31;;;;;;;35.42;17.95;;;3.90;99.90;;;;;;5006695;28;20393;-51
2021/12/23 11:47:01;;;;;;;35.15;17.95;;;4.80;99.90;;;;;;5006306;28;20409;-51
2021/12/23 11:49:27;;;;;;;35.40;18.13;;;4.00;99.90;;;;;;5006943;28;20393;-53
2021/12/23 11:51:56;;;;;;;36.15;18.00;;;4.10;99.90;;;;;;5010606;28;20424;-54
2021/12/23 11:54:31;;;;;;;33.10;17.45;;;4.10;99.90;;;;;;5009739;28;20490;-54
2021/12/23 11:57:08;;;;;;;34.05;17.17;;;4.20;99.90;;;;;;5006154;28;20402;-53
2021/12/23 11:59:40;;;;;;;33.20;17.33;;;4.20;99.90;;;;;;5001524;28;20414;-53
2021/12/23 12:02:32;;;;;;;36.80;18.00;;;4.20;99.90;;;;;;5007323;28;20544;-54
2021/12/23 12:05:04;;;;;;;34.55;17.73;;;4.20;99.90;;;;;;5017203;28;20416;-54
2021/12/23 12:07:29;;;;;;;32.78;17.63;;;4.40;99.90;;;;;;5008925;28;20440;-53
2021/12/23 12:09:58;;;;;;;46.05;19.20;;;4.50;99.90;;;;;;5009913;28;20943;-54
2021/12/23 12:12:24;;;;;;;32.80;17.13;;;4.50;99.90;;;;;;5008892;28;20514;-55
2021/12/23 12:14:54;;;;;;;35.70;18.70;;;4.60;99.90;;;;;;5017559;28;20807;-54
2021/12/23 12:17:25;;;;;;;33.20;17.60;;;4.50;99.90;;;;;;5006803;28;20428;-54
2021/12/23 12:20:04;;;;;;;37.03;18.23;;;4.50;99.90;;;;;;5008465;28;20495;-54
2021/12/23 12:22:51;;;;;;;33.25;18.13;;;4.60;99.90;;;;;;5007174;28;20404;-54
2021/12/23 12:25:22;;;;;;;35.65;17.50;;;4.70;99.90;;;;;;5006898;28;20477;-54
2021/12/23 12:28:08;;;;;;;36.40;18.30;;;4.70;99.90;;;;;;5006648;28;20404;-54
2021/12/23 12:30:35;;;;;;;35.25;19.10;;;4.70;99.90;;;;;;5004470;28;21043;-54
2021/12/23 12:33:09;;;;;;;33.45;18.13;;;4.70;99.90;;;;;;5007282;28;20389;-54
2021/12/23 12:35:35;;;;;;;36.60;21.17;;;4.80;99.90;;;;;;5003265;28;20719;-54
2021/12/23 12:38:19;;;;;;;33.30;18.92;;;4.90;99.90;;;;;;5009051;28;20965;-54
2021/12/23 12:41:02;;;;;;;33.60;18.23;;;5.00;99.90;;;;;;5009484;28;20393;-54
2021/12/23 12:43:54;;;;;;;37.97;18.70;;;4.90;99.90;;;;;;5008962;28;20805;-54
2021/12/23 12:46:34;;;;;;;35.75;18.92;;;4.80;99.90;;;;;;5008549;28;20427;-54
2021/12/23 12:49:05;;;;;;;35.08;18.60;;;4.80;99.90;;;;;;5010234;28;20393;-54
2021/12/23 12:51:40;;;;;;;31.13;16.77;;;4.90;99.90;;;;;;5009586;28;20396;-54
2021/12/23 12:54:12;;;;;;;36.85;18.92;;;4.90;99.90;;;;;;5009782;28;20412;-54
2021/12/23 12:56:45;;;;;;;31.63;17.08;;;4.90;99.90;;;;;;5009377;28;21077;-54
2021/12/23 12:59:13;;;;;;;34.58;17.15;;;5.00;99.90;;;;;;5009679;28;20412;-54
2021/12/23 13:01:44;;;;;;;35.83;17.58;;;4.90;99.90;;;;;;5009178;28;20932;-54
2021/12/23 13:04:31;;;;;;;31.98;16.52;;;5.00;99.90;;;;;;5010033;28;20399;-54
2021/12/23 13:07:11;;;;;;;32.25;16.17;;;5.00;99.90;;;;;;5010277;28;20866;-54
2021/12/23 13:09:53;;;;;;;33.42;16.17;;;4.90;99.90;;;;;;5009193;28;20737;-54
2021/12/23 13:12:32;;;;;;;38.40;17.85;;;5.20;99.90;;;;;;5007692;28;20487;-54
2021/12/23 13:15:19;;;;;;;31.37;16.37;;;4.90;99.90;;;;;;5009706;28;20404;-54
2021/12/23 13:17:53;;;;;;;32.97;16.90;;;5.00;99.90;;;;;;5010013;28;20376;-54
2021/12/23 13:20:35;;;;;;;32.33;17.45;;;5.00;99.90;;;;;;5008996;28;20389;-54
2021/12/23 13:23:06;;;;;;;34.17;17.20;;;5.10;99.90;;;;;;5009888;28;20392;-54
2021/12/23 13:25:32;;;;;;;31.17;17.20;;;5.10;99.90;;;;;;5008692;28;20392;-52
2021/12/23 13:28:00;;;;;;;34.80;20.65;;;5.30;99.90;;;;;;5009691;28;20384;-52
2021/12/23 13:30:27;;;;;;;32.22;17.15;;;5.40;99.90;;;;;;5009101;28;20396;-52
2021/12/23 13:33:00;;;;;;;37.25;16.67;;;5.40;99.90;;;;;;5009419;28;20401;-55
2021/12/23 13:35:27;;;;;;;32.10;16.77;;;5.30;99.90;;;;;;5008772;28;20522;-54
2021/12/23 13:37:53;;;;;;;28.42;15.95;;;5.30;99.90;;;;;;5009794;28;20471;-54
2021/12/23 13:40:35;;;;;;;31.20;15.77;;;5.30;99.90;;;;;;5007629;28;20397;-54
2021/12/23 13:43:01;;;;;;;29.38;15.65;;;5.40;99.90;;;;;;5009377;28;20397;-54
2021/12/23 13:45:28;;;;;;;38.22;16.80;;;5.30;99.90;;;;;;5008457;28;20558;-54